sensor_id;sensor_type;location;lat;lon;timestamp;pressure;altitude;pressure_sealevel;temperature;humidity
78573;BME280;67862;0.000;0.000;2023-12-07T00:02:14;98785.03;;;20.78;56.92
78573;BME280;67862;0.000;0.000;2023-12-07T00:04:39;98771.91;;;20.80;56.97
78573;BME280;67862;0.000;0.000;2023-12-07T00:07:04;98777.06;;;20.81;57.24
78573;BME280;67862;0.000;0.000;2023-12-07T00:09:30;98771.31;;;20.83;57.40
78573;BME280;67862;0.000;0.000;2023-12-07T00:11:56;98774.56;;;20.85;57.36
78573;BME280;67862;0.000;0.000;2023-12-07T00:14:21;98775.91;;;20.88;57.50
78573;BME280;67862;0.000;0.000;2023-12-07T00:16:46;98775.59;;;20.89;57.74
78573;BME280;67862;0.000;0.000;2023-12-07T00:19:12;98769.84;;;20.91;57.44
78573;BME280;67862;0.000;0.000;2023-12-07T00:21:38;98778.53;;;20.93;57.68
78573;BME280;67862;0.000;0.000;2023-12-07T00:24:07;98777.16;;;20.95;57.60
78573;BME280;67862;0.000;0.000;2023-12-07T00:26:33;98776.03;;;20.96;57.52
78573;BME280;67862;0.000;0.000;2023-12-07T00:28:59;98770.28;;;20.98;57.62
78573;BME280;67862;0.000;0.000;2023-12-07T00:31:24;98771.09;;;20.98;57.44
78573;BME280;67862;0.000;0.000;2023-12-07T00:33:49;98774.63;;;20.99;57.54
78573;BME280;67862;0.000;0.000;2023-12-07T00:36:15;98778.66;;;21.01;58.20
78573;BME280;67862;0.000;0.000;2023-12-07T00:38:40;98780.28;;;21.02;57.39
78573;BME280;67862;0.000;0.000;2023-12-07T00:41:06;98780.28;;;21.02;57.74
78573;BME280;67862;0.000;0.000;2023-12-07T00:43:31;98785.47;;;21.04;57.88
78573;BME280;67862;0.000;0.000;2023-12-07T00:45:56;98782.44;;;21.05;57.97
78573;BME280;67862;0.000;0.000;2023-12-07T00:48:22;98780.50;;;21.06;57.56
78573;BME280;67862;0.000;0.000;2023-12-07T00:50:48;98775.06;;;21.06;57.60
78573;BME280;67862;0.000;0.000;2023-12-07T00:53:13;98781.03;;;21.08;57.81
78573;BME280;67862;0.000;0.000;2023-12-07T00:55:38;98782.63;;;21.09;57.58
78573;BME280;67862;0.000;0.000;2023-12-07T00:58:05;98783.75;;;21.08;57.40
78573;BME280;67862;0.000;0.000;2023-12-07T01:00:30;98786.19;;;21.09;57.40
78573;BME280;67862;0.000;0.000;2023-12-07T01:02:56;98789.41;;;21.11;57.64
78573;BME280;67862;0.000;0.000;2023-12-07T01:05:21;98783.16;;;21.11;57.29
78573;BME280;67862;0.000;0.000;2023-12-07T01:07:47;98778.50;;;21.11;57.38
78573;BME280;67862;0.000;0.000;2023-12-07T01:10:12;98780.94;;;21.13;57.65
78573;BME280;67862;0.000;0.000;2023-12-07T01:12:37;98780.94;;;21.13;57.79
78573;BME280;67862;0.000;0.000;2023-12-07T01:15:03;98784.50;;;21.13;57.65
78573;BME280;67862;0.000;0.000;2023-12-07T01:17:29;98777.13;;;21.14;57.51
78573;BME280;67862;0.000;0.000;2023-12-07T01:19:54;98779.84;;;21.14;57.65
78573;BME280;67862;0.000;0.000;2023-12-07T01:22:20;98773.28;;;21.15;57.20
78573;BME280;67862;0.000;0.000;2023-12-07T01:24:45;98773.28;;;21.15;57.54
78573;BME280;67862;0.000;0.000;2023-12-07T01:27:11;98772.47;;;21.14;57.16
78573;BME280;67862;0.000;0.000;2023-12-07T01:29:36;98769.44;;;21.16;57.59
78573;BME280;67862;0.000;0.000;2023-12-07T01:32:02;98775.69;;;21.17;57.49
78573;BME280;67862;0.000;0.000;2023-12-07T01:34:27;98779.25;;;21.17;57.59
78573;BME280;67862;0.000;0.000;2023-12-07T01:36:53;98776.22;;;21.19;57.13
78573;BME280;67862;0.000;0.000;2023-12-07T01:39:18;98779.75;;;21.19;57.36
78573;BME280;67862;0.000;0.000;2023-12-07T01:41:44;98776.72;;;21.21;57.18
78573;BME280;67862;0.000;0.000;2023-12-07T01:44:09;98776.72;;;21.21;57.38
78573;BME280;67862;0.000;0.000;2023-12-07T01:46:35;98774.78;;;21.21;57.28
78573;BME280;67862;0.000;0.000;2023-12-07T01:49:01;98768.22;;;21.22;57.16
78573;BME280;67862;0.000;0.000;2023-12-07T01:51:26;98777.22;;;21.23;57.07
78573;BME280;67862;0.000;0.000;2023-12-07T01:53:52;98776.94;;;21.24;57.39
78573;BME280;67862;0.000;0.000;2023-12-07T01:56:18;98771.47;;;21.24;57.38
78573;BME280;67862;0.000;0.000;2023-12-07T01:58:43;98773.91;;;21.26;57.59
78573;BME280;67862;0.000;0.000;2023-12-07T02:01:09;98770.09;;;21.27;57.29
78573;BME280;67862;0.000;0.000;2023-12-07T02:03:38;98767.06;;;21.28;57.92
78573;BME280;67862;0.000;0.000;2023-12-07T02:06:04;98760.78;;;21.28;57.97
78573;BME280;67862;0.000;0.000;2023-12-07T02:08:30;98767.06;;;21.28;57.37
78573;BME280;67862;0.000;0.000;2023-12-07T02:10:55;98765.94;;;21.29;57.92
78573;BME280;67862;0.000;0.000;2023-12-07T02:13:20;98761.31;;;21.30;57.33
78573;BME280;67862;0.000;0.000;2023-12-07T02:15:46;98761.31;;;21.30;57.59
78573;BME280;67862;0.000;0.000;2023-12-07T02:23:03;98762.63;;;21.32;57.81
78573;BME280;67862;0.000;0.000;2023-12-07T02:25:52;98759.88;;;21.32;57.52
78573;BME280;67862;0.000;0.000;2023-12-07T02:28:18;98761.81;;;21.32;57.70
78573;BME280;67862;0.000;0.000;2023-12-07T02:30:44;98753.34;;;21.33;58.10
78573;BME280;67862;0.000;0.000;2023-12-07T02:33:09;98758.81;;;21.33;57.74
78573;BME280;67862;0.000;0.000;2023-12-07T02:35:36;98762.34;;;21.34;57.98
78573;BME280;67862;0.000;0.000;2023-12-07T02:38:01;98763.97;;;21.35;57.90
78573;BME280;67862;0.000;0.000;2023-12-07T02:40:28;98767.50;;;21.35;57.88
78573;BME280;67862;0.000;0.000;2023-12-07T02:42:54;98770.22;;;21.35;57.94
78573;BME280;67862;0.000;0.000;2023-12-07T02:45:19;98767.19;;;21.37;57.66
78573;BME280;67862;0.000;0.000;2023-12-07T02:47:45;98769.91;;;21.37;57.75
78573;BME280;67862;0.000;0.000;2023-12-07T02:50:10;98768.00;;;21.37;57.88
78573;BME280;67862;0.000;0.000;2023-12-07T02:52:36;98763.34;;;21.38;57.83
78573;BME280;67862;0.000;0.000;2023-12-07T02:55:02;98762.22;;;21.39;57.72
78573;BME280;67862;0.000;0.000;2023-12-07T02:57:27;98765.78;;;21.39;57.74
78573;BME280;67862;0.000;0.000;2023-12-07T02:59:53;98770.44;;;21.39;57.62
78573;BME280;67862;0.000;0.000;2023-12-07T03:02:18;98768.50;;;21.39;58.05
78573;BME280;67862;0.000;0.000;2023-12-07T03:04:44;98768.50;;;21.39;57.84
78573;BME280;67862;0.000;0.000;2023-12-07T03:07:09;98769.31;;;21.40;57.75
78573;BME280;67862;0.000;0.000;2023-12-07T03:09:34;98776.69;;;21.39;57.47
78573;BME280;67862;0.000;0.000;2023-12-07T03:12:00;98772.84;;;21.40;57.32
78573;BME280;67862;0.000;0.000;2023-12-07T03:14:25;98780.22;;;21.40;57.53
78573;BME280;67862;0.000;0.000;2023-12-07T03:16:50;98781.03;;;21.40;57.90
78573;BME280;67862;0.000;0.000;2023-12-07T03:19:16;98775.59;;;21.40;57.63
78573;BME280;67862;0.000;0.000;2023-12-07T03:21:41;98779.13;;;21.41;57.82
78573;BME280;67862;0.000;0.000;2023-12-07T03:24:07;98775.59;;;21.40;57.54
78573;BME280;67862;0.000;0.000;2023-12-07T03:26:33;98777.19;;;21.41;57.73
78573;BME280;67862;0.000;0.000;2023-12-07T03:28:59;98781.03;;;21.40;57.87
78573;BME280;67862;0.000;0.000;2023-12-07T03:31:24;98785.38;;;21.41;57.95
78573;BME280;67862;0.000;0.000;2023-12-07T03:33:49;98792.78;;;21.41;57.72
78573;BME280;67862;0.000;0.000;2023-12-07T03:36:15;98792.78;;;21.41;58.05
78573;BME280;67862;0.000;0.000;2023-12-07T03:38:40;98797.13;;;21.42;58.00
78573;BME280;67862;0.000;0.000;2023-12-07T03:41:05;98794.69;;;21.40;57.97
78573;BME280;67862;0.000;0.000;2023-12-07T03:43:30;98797.13;;;21.42;58.09
78573;BME280;67862;0.000;0.000;2023-12-07T03:45:56;98796.31;;;21.41;57.99
78573;BME280;67862;0.000;0.000;2023-12-07T03:48:21;98804.50;;;21.41;58.33
78573;BME280;67862;0.000;0.000;2023-12-07T03:50:46;98795.22;;;21.42;58.17
78573;BME280;67862;0.000;0.000;2023-12-07T03:53:12;98792.50;;;21.42;58.11
78573;BME280;67862;0.000;0.000;2023-12-07T03:55:37;98799.56;;;21.43;57.99
78573;BME280;67862;0.000;0.000;2023-12-07T03:58:03;98801.19;;;21.45;58.15
78573;BME280;67862;0.000;0.000;2023-12-07T04:00:30;98799.28;;;21.45;58.03
78573;BME280;67862;0.000;0.000;2023-12-07T04:02:55;98794.94;;;21.44;58.38
78573;BME280;67862;0.000;0.000;2023-12-07T04:05:20;98804.13;;;21.48;58.61
78573;BME280;67862;0.000;0.000;2023-12-07T04:07:46;98809.09;;;21.46;58.63
78573;BME280;67862;0.000;0.000;2023-12-07T04:10:11;98805.53;;;21.46;58.62
78573;BME280;67862;0.000;0.000;2023-12-07T04:12:36;98811.81;;;21.46;58.17
78573;BME280;67862;0.000;0.000;2023-12-07T04:15:02;98815.34;;;21.47;58.11
78573;BME280;67862;0.000;0.000;2023-12-07T04:17:27;98812.94;;;21.45;58.09
78573;BME280;67862;0.000;0.000;2023-12-07T04:19:53;98811.00;;;21.46;57.85
78573;BME280;67862;0.000;0.000;2023-12-07T04:22:19;98806.66;;;21.45;57.96
78573;BME280;67862;0.000;0.000;2023-12-07T04:24:45;98811.31;;;21.44;58.19
78573;BME280;67862;0.000;0.000;2023-12-07T04:27:10;98809.38;;;21.45;58.00
78573;BME280;67862;0.000;0.000;2023-12-07T04:29:35;98817.56;;;21.45;57.81
78573;BME280;67862;0.000;0.000;2023-12-07T04:32:01;98817.56;;;21.45;57.94
78573;BME280;67862;0.000;0.000;2023-12-07T04:34:27;98819.50;;;21.44;58.19
78573;BME280;67862;0.000;0.000;2023-12-07T04:36:52;98824.97;;;21.44;58.02
78573;BME280;67862;0.000;0.000;2023-12-07T04:39:18;98821.44;;;21.43;58.12
78573;BME280;67862;0.000;0.000;2023-12-07T04:41:43;98818.69;;;21.43;58.11
78573;BME280;67862;0.000;0.000;2023-12-07T04:44:08;98824.44;;;21.42;57.91
78573;BME280;67862;0.000;0.000;2023-12-07T04:46:34;98822.53;;;21.42;57.70
78573;BME280;67862;0.000;0.000;2023-12-07T04:49:00;98827.16;;;21.42;58.24
78573;BME280;67862;0.000;0.000;2023-12-07T04:51:26;98828.00;;;21.42;57.93
78573;BME280;67862;0.000;0.000;2023-12-07T04:53:51;98835.34;;;21.42;58.16
78573;BME280;67862;0.000;0.000;2023-12-07T04:56:16;98832.63;;;21.42;58.07
78573;BME280;67862;0.000;0.000;2023-12-07T04:58:42;98831.81;;;21.41;57.89
78573;BME280;67862;0.000;0.000;2023-12-07T05:01:07;98840.00;;;21.41;57.95
78573;BME280;67862;0.000;0.000;2023-12-07T05:03:32;98843.53;;;21.42;58.00
78573;BME280;67862;0.000;0.000;2023-12-07T05:05:58;98848.19;;;21.41;58.26
78573;BME280;67862;0.000;0.000;2023-12-07T05:08:23;98840.00;;;21.41;57.84
78573;BME280;67862;0.000;0.000;2023-12-07T05:10:49;98842.72;;;21.41;57.71
78573;BME280;67862;0.000;0.000;2023-12-07T05:13:14;98843.84;;;21.40;57.98
78573;BME280;67862;0.000;0.000;2023-12-07T05:15:39;98846.56;;;21.40;57.59
78573;BME280;67862;0.000;0.000;2023-12-07T05:18:05;98852.03;;;21.40;57.58
78573;BME280;67862;0.000;0.000;2023-12-07T05:20:30;98850.41;;;21.39;57.67
78573;BME280;67862;0.000;0.000;2023-12-07T05:22:56;98861.34;;;21.39;57.95
78573;BME280;67862;0.000;0.000;2023-12-07T05:25:21;98855.88;;;21.39;57.44
78573;BME280;67862;0.000;0.000;2023-12-07T05:27:46;98865.19;;;21.38;57.48
78573;BME280;67862;0.000;0.000;2023-12-07T05:30:12;98871.44;;;21.39;57.36
78573;BME280;67862;0.000;0.000;2023-12-07T05:32:38;98873.38;;;21.38;57.84
78573;BME280;67862;0.000;0.000;2023-12-07T05:35:03;98877.22;;;21.37;57.39
78573;BME280;67862;0.000;0.000;2023-12-07T05:37:29;98882.69;;;21.37;57.37
78573;BME280;67862;0.000;0.000;2023-12-07T05:39:54;98885.41;;;21.37;57.29
78573;BME280;67862;0.000;0.000;2023-12-07T05:42:20;98879.94;;;21.37;57.29
78573;BME280;67862;0.000;0.000;2023-12-07T05:44:45;98884.59;;;21.37;57.27
78573;BME280;67862;0.000;0.000;2023-12-07T05:47:11;98891.97;;;21.36;57.21
78573;BME280;67862;0.000;0.000;2023-12-07T05:49:36;98894.72;;;21.36;57.41
78573;BME280;67862;0.000;0.000;2023-12-07T05:52:01;98891.16;;;21.36;57.29
78573;BME280;67862;0.000;0.000;2023-12-07T05:54:28;98894.72;;;21.36;57.21
78573;BME280;67862;0.000;0.000;2023-12-07T05:56:53;98887.53;;;21.40;57.97
78573;BME280;67862;0.000;0.000;2023-12-07T05:59:18;98897.13;;;21.38;57.72
78573;BME280;67862;0.000;0.000;2023-12-07T06:01:43;98898.75;;;21.39;57.97
78573;BME280;67862;0.000;0.000;2023-12-07T06:04:09;98898.16;;;21.42;58.06
78573;BME280;67862;0.000;0.000;2023-12-07T06:06:35;98901.19;;;21.40;58.43
78573;BME280;67862;0.000;0.000;2023-12-07T06:09:00;98905.03;;;21.39;57.58
78573;BME280;67862;0.000;0.000;2023-12-07T06:11:26;98905.03;;;21.39;57.58
78573;BME280;67862;0.000;0.000;2023-12-07T06:13:51;98903.41;;;21.38;57.60
78573;BME280;67862;0.000;0.000;2023-12-07T06:16:17;98908.28;;;21.41;58.25
78573;BME280;67862;0.000;0.000;2023-12-07T06:18:43;98916.47;;;21.41;58.01
78573;BME280;67862;0.000;0.000;2023-12-07T06:21:10;98915.94;;;21.39;57.44
78573;BME280;67862;0.000;0.000;2023-12-07T06:23:35;98918.69;;;21.39;57.81
78573;BME280;67862;0.000;0.000;2023-12-07T06:26:01;98911.59;;;21.38;57.64
78573;BME280;67862;0.000;0.000;2023-12-07T06:28:27;98916.56;;;21.36;57.80
78573;BME280;67862;0.000;0.000;2023-12-07T06:30:52;98924.75;;;21.36;57.38
78573;BME280;67862;0.000;0.000;2023-12-07T06:33:18;98920.41;;;21.35;57.33
78573;BME280;67862;0.000;0.000;2023-12-07T06:35:43;98929.69;;;21.34;57.61
78573;BME280;67862;0.000;0.000;2023-12-07T06:38:08;98928.88;;;21.34;57.66
78573;BME280;67862;0.000;0.000;2023-12-07T06:40:34;98928.88;;;21.34;57.60
78573;BME280;67862;0.000;0.000;2023-12-07T06:42:59;98934.63;;;21.32;57.24
78573;BME280;67862;0.000;0.000;2023-12-07T06:45:24;98938.47;;;21.31;57.13
78573;BME280;67862;0.000;0.000;2023-12-07T06:47:50;98939.56;;;21.30;57.07
78573;BME280;67862;0.000;0.000;2023-12-07T06:50:15;98935.22;;;21.29;57.04
78573;BME280;67862;0.000;0.000;2023-12-07T06:52:41;98949.97;;;21.28;57.05
78573;BME280;67862;0.000;0.000;2023-12-07T06:55:07;98946.44;;;21.28;57.24
78573;BME280;67862;0.000;0.000;2023-12-07T06:57:35;98951.09;;;21.27;56.91
78573;BME280;67862;0.000;0.000;2023-12-07T07:00:01;98949.47;;;21.26;57.18
78573;BME280;67862;0.000;0.000;2023-12-07T07:02:30;98953.28;;;21.25;57.08
78573;BME280;67862;0.000;0.000;2023-12-07T07:04:55;98956.00;;;21.25;57.00
78573;BME280;67862;0.000;0.000;2023-12-07T07:07:21;98960.66;;;21.25;56.59
78573;BME280;67862;0.000;0.000;2023-12-07T07:09:46;98961.47;;;21.25;57.12
78573;BME280;67862;0.000;0.000;2023-12-07T07:12:11;98968.03;;;21.24;56.63
78573;BME280;67862;0.000;0.000;2023-12-07T07:14:37;98958.22;;;21.23;56.76
78573;BME280;67862;0.000;0.000;2023-12-07T07:17:02;98962.84;;;21.23;56.67
78573;BME280;67862;0.000;0.000;2023-12-07T07:19:29;98960.13;;;21.23;56.59
78573;BME280;67862;0.000;0.000;2023-12-07T07:21:55;98960.97;;;21.23;56.93
78573;BME280;67862;0.000;0.000;2023-12-07T07:24:20;98970.22;;;21.22;56.93
78573;BME280;67862;0.000;0.000;2023-12-07T07:26:46;98964.75;;;21.22;56.83
78573;BME280;67862;0.000;0.000;2023-12-07T07:29:11;98965.56;;;21.23;56.48
78573;BME280;67862;0.000;0.000;2023-12-07T07:31:36;98963.94;;;21.22;56.86
78573;BME280;67862;0.000;0.000;2023-12-07T07:34:02;98968.59;;;21.21;57.23
78573;BME280;67862;0.000;0.000;2023-12-07T07:36:29;98969.97;;;21.24;57.43
78573;BME280;67862;0.000;0.000;2023-12-07T07:38:54;98980.56;;;21.25;57.75
78573;BME280;67862;0.000;0.000;2023-12-07T07:41:20;98975.94;;;21.26;57.81
78573;BME280;67862;0.000;0.000;2023-12-07T07:43:45;98973.19;;;21.26;58.23
78573;BME280;67862;0.000;0.000;2023-12-07T07:46:11;98975.38;;;21.29;58.33
78573;BME280;67862;0.000;0.000;2023-12-07T07:48:36;98977.28;;;21.28;58.13
78573;BME280;67862;0.000;0.000;2023-12-07T07:51:02;98981.63;;;21.29;57.88
78573;BME280;67862;0.000;0.000;2023-12-07T07:53:28;98988.19;;;21.28;58.15
78573;BME280;67862;0.000;0.000;2023-12-07T07:55:53;98997.19;;;21.29;57.96
78573;BME280;67862;0.000;0.000;2023-12-07T07:58:19;98995.28;;;21.29;58.25
78573;BME280;67862;0.000;0.000;2023-12-07T08:00:45;98992.56;;;21.29;58.06
78573;BME280;67862;0.000;0.000;2023-12-07T08:03:11;98996.91;;;21.30;57.98
78573;BME280;67862;0.000;0.000;2023-12-07T08:05:37;98994.19;;;21.30;58.02
78573;BME280;67862;0.000;0.000;2023-12-07T08:08:02;98997.72;;;21.31;57.58
78573;BME280;67862;0.000;0.000;2023-12-07T08:10:28;98999.63;;;21.30;57.78
78573;BME280;67862;0.000;0.000;2023-12-07T08:12:53;98998.81;;;21.30;56.92
78573;BME280;67862;0.000;0.000;2023-12-07T08:15:19;98997.19;;;21.29;57.27
78573;BME280;67862;0.000;0.000;2023-12-07T08:17:46;99003.47;;;21.29;57.08
78573;BME280;67862;0.000;0.000;2023-12-07T08:20:11;99010.84;;;21.29;57.02
78573;BME280;67862;0.000;0.000;2023-12-07T08:22:38;99012.78;;;21.28;57.11
78573;BME280;67862;0.000;0.000;2023-12-07T08:25:04;99012.78;;;21.28;57.25
78573;BME280;67862;0.000;0.000;2023-12-07T08:27:33;99008.13;;;21.29;56.74
78573;BME280;67862;0.000;0.000;2023-12-07T08:29:58;99011.97;;;21.28;56.93
78573;BME280;67862;0.000;0.000;2023-12-07T08:32:24;99012.78;;;21.28;56.79
78573;BME280;67862;0.000;0.000;2023-12-07T08:34:53;99008.94;;;21.29;57.06
78573;BME280;67862;0.000;0.000;2023-12-07T08:37:19;99008.13;;;21.29;56.79
78573;BME280;67862;0.000;0.000;2023-12-07T08:39:45;99014.41;;;21.29;56.76
78573;BME280;67862;0.000;0.000;2023-12-07T08:42:10;99009.75;;;21.30;56.97
78573;BME280;67862;0.000;0.000;2023-12-07T08:44:36;99019.84;;;21.29;56.55
78573;BME280;67862;0.000;0.000;2023-12-07T08:47:01;99019.84;;;21.29;56.82
78573;BME280;67862;0.000;0.000;2023-12-07T08:49:27;99017.13;;;21.29;56.98
78573;BME280;67862;0.000;0.000;2023-12-07T08:51:52;99020.66;;;21.30;56.52
78573;BME280;67862;0.000;0.000;2023-12-07T08:54:18;99019.84;;;21.29;56.77
78573;BME280;67862;0.000;0.000;2023-12-07T08:56:44;99021.78;;;21.29;56.61
78573;BME280;67862;0.000;0.000;2023-12-07T08:59:09;99022.59;;;21.29;56.75
78573;BME280;67862;0.000;0.000;2023-12-07T09:01:35;99022.59;;;21.29;56.44
78573;BME280;67862;0.000;0.000;2023-12-07T09:04:00;99024.50;;;21.29;56.64
78573;BME280;67862;0.000;0.000;2023-12-07T09:06:26;99019.84;;;21.29;56.46
78573;BME280;67862;0.000;0.000;2023-12-07T09:08:51;99022.59;;;21.29;56.77
78573;BME280;67862;0.000;0.000;2023-12-07T09:11:17;99031.88;;;21.28;56.42
78573;BME280;67862;0.000;0.000;2023-12-07T09:13:42;99034.31;;;21.30;56.62
78573;BME280;67862;0.000;0.000;2023-12-07T09:16:07;99029.16;;;21.28;56.27
78573;BME280;67862;0.000;0.000;2023-12-07T09:18:33;99023.69;;;21.28;56.27
78573;BME280;67862;0.000;0.000;2023-12-07T09:20:59;99026.72;;;21.27;56.67
78573;BME280;67862;0.000;0.000;2023-12-07T09:23:25;99022.88;;;21.28;56.54
78573;BME280;67862;0.000;0.000;2023-12-07T09:25:51;99024.81;;;21.27;56.29
78573;BME280;67862;0.000;0.000;2023-12-07T09:28:17;99023.69;;;21.28;56.61
78573;BME280;67862;0.000;0.000;2023-12-07T09:30:42;99016.63;;;21.27;56.25
78573;BME280;67862;0.000;0.000;2023-12-07T09:33:07;99031.88;;;21.28;56.42
78573;BME280;67862;0.000;0.000;2023-12-07T09:35:33;99031.88;;;21.28;56.13
78573;BME280;67862;0.000;0.000;2023-12-07T09:38:07;99028.34;;;21.28;56.15
78573;BME280;67862;0.000;0.000;2023-12-07T09:40:33;99018.22;;;21.28;56.13
78573;BME280;67862;0.000;0.000;2023-12-07T09:42:58;99021.25;;;21.27;56.09
78573;BME280;67862;0.000;0.000;2023-12-07T09:45:24;99022.06;;;21.27;56.12
78573;BME280;67862;0.000;0.000;2023-12-07T09:47:50;99021.25;;;21.27;56.21
78573;BME280;67862;0.000;0.000;2023-12-07T09:50:16;99016.63;;;21.27;56.03
78573;BME280;67862;0.000;0.000;2023-12-07T09:52:49;99019.34;;;21.27;56.23
78573;BME280;67862;0.000;0.000;2023-12-07T09:55:16;99022.06;;;21.27;55.89
78573;BME280;67862;0.000;0.000;2023-12-07T09:57:42;99030.25;;;21.27;55.99
78573;BME280;67862;0.000;0.000;2023-12-07T10:00:08;99017.72;;;21.26;56.01
78573;BME280;67862;0.000;0.000;2023-12-07T10:02:37;99025.91;;;21.26;56.20
78573;BME280;67862;0.000;0.000;2023-12-07T10:05:04;99023.19;;;21.26;55.92
78573;BME280;67862;0.000;0.000;2023-12-07T10:07:34;99018.81;;;21.25;56.19
78573;BME280;67862;0.000;0.000;2023-12-07T10:10:05;99027.81;;;21.26;56.11
78573;BME280;67862;0.000;0.000;2023-12-07T10:12:32;99018.81;;;21.25;56.20
78573;BME280;67862;0.000;0.000;2023-12-07T10:15:01;99030.53;;;21.26;56.02
78573;BME280;67862;0.000;0.000;2023-12-07T10:20:17;99022.63;;;21.24;55.86
78573;BME280;67862;0.000;0.000;2023-12-07T10:22:43;99021.03;;;21.23;56.05
78573;BME280;67862;0.000;0.000;2023-12-07T10:25:09;99026.47;;;21.23;56.01
78573;BME280;67862;0.000;0.000;2023-12-07T10:27:34;99027.56;;;21.22;56.00
78573;BME280;67862;0.000;0.000;2023-12-07T10:30:00;99024.81;;;21.22;55.96
78573;BME280;67862;0.000;0.000;2023-12-07T10:32:26;99021.28;;;21.22;55.70
78573;BME280;67862;0.000;0.000;2023-12-07T10:34:52;99022.09;;;21.22;55.72
78573;BME280;67862;0.000;0.000;2023-12-07T10:37:17;99018.56;;;21.22;55.58
78573;BME280;67862;0.000;0.000;2023-12-07T10:39:43;99021.28;;;21.22;55.88
78573;BME280;67862;0.000;0.000;2023-12-07T10:42:09;99025.94;;;21.21;55.63
78573;BME280;67862;0.000;0.000;2023-12-07T10:44:35;99023.19;;;21.21;55.73
78573;BME280;67862;0.000;0.000;2023-12-07T10:47:04;99027.84;;;21.21;55.86
78573;BME280;67862;0.000;0.000;2023-12-07T10:49:29;99027.03;;;21.20;55.71
78573;BME280;67862;0.000;0.000;2023-12-07T10:51:59;99035.22;;;21.20;55.43
78573;BME280;67862;0.000;0.000;2023-12-07T10:54:27;99031.69;;;21.20;55.53
78573;BME280;67862;0.000;0.000;2023-12-07T10:56:55;99032.00;;;21.18;55.57
78573;BME280;67862;0.000;0.000;2023-12-07T10:59:21;99032.00;;;21.18;55.55
78573;BME280;67862;0.000;0.000;2023-12-07T11:01:46;99029.25;;;21.18;55.33
78573;BME280;67862;0.000;0.000;2023-12-07T11:04:12;99027.63;;;21.17;55.42
78573;BME280;67862;0.000;0.000;2023-12-07T11:06:41;99034.19;;;21.16;55.65
78573;BME280;67862;0.000;0.000;2023-12-07T11:09:09;99038.56;;;21.17;55.51
78573;BME280;67862;0.000;0.000;2023-12-07T11:11:40;99042.38;;;21.16;55.27
78573;BME280;67862;0.000;0.000;2023-12-07T11:14:07;99042.38;;;21.16;55.50
78573;BME280;67862;0.000;0.000;2023-12-07T11:16:34;99038.03;;;21.15;55.65
78573;BME280;67862;0.000;0.000;2023-12-07T11:19:00;99040.78;;;21.15;55.41
78573;BME280;67862;0.000;0.000;2023-12-07T11:21:26;99044.59;;;21.14;55.56
78573;BME280;67862;0.000;0.000;2023-12-07T11:23:52;99045.41;;;21.14;55.31
78573;BME280;67862;0.000;0.000;2023-12-07T11:26:23;99049.25;;;21.13;55.33
78573;BME280;67862;0.000;0.000;2023-12-07T11:28:50;99048.41;;;21.13;55.27
78573;BME280;67862;0.000;0.000;2023-12-07T11:31:15;99047.59;;;21.12;55.66
78573;BME280;67862;0.000;0.000;2023-12-07T11:33:41;99049.53;;;21.12;55.17
78573;BME280;67862;0.000;0.000;2023-12-07T11:36:10;99050.34;;;21.12;55.43
78573;BME280;67862;0.000;0.000;2023-12-07T11:38:37;99042.44;;;21.11;55.29
78573;BME280;67862;0.000;0.000;2023-12-07T11:41:03;99056.91;;;21.11;55.66
78573;BME280;67862;0.000;0.000;2023-12-07T11:45:57;99049.81;;;21.10;55.11
78573;BME280;67862;0.000;0.000;2023-12-07T11:48:23;99045.47;;;21.09;55.13
78573;BME280;67862;0.000;0.000;2023-12-07T11:51:01;99044.66;;;21.09;55.54
78573;BME280;67862;0.000;0.000;2023-12-07T11:53:28;99050.13;;;21.09;55.14
78573;BME280;67862;0.000;0.000;2023-12-07T11:55:55;99050.94;;;21.09;55.07
78573;BME280;67862;0.000;0.000;2023-12-07T11:58:21;99040.31;;;21.08;55.23
78573;BME280;67862;0.000;0.000;2023-12-07T12:00:47;99048.50;;;21.08;55.28
78573;BME280;67862;0.000;0.000;2023-12-07T12:03:13;99044.94;;;21.07;55.06
78573;BME280;67862;0.000;0.000;2023-12-07T12:05:39;99056.69;;;21.08;55.23
78573;BME280;67862;0.000;0.000;2023-12-07T12:08:05;99052.31;;;21.07;55.44
78573;BME280;67862;0.000;0.000;2023-12-07T12:10:31;99052.31;;;21.07;55.00
78573;BME280;67862;0.000;0.000;2023-12-07T12:12:56;99048.78;;;21.06;55.34
78573;BME280;67862;0.000;0.000;2023-12-07T12:15:22;99053.44;;;21.06;55.31
78573;BME280;67862;0.000;0.000;2023-12-07T12:17:47;99051.81;;;21.05;55.10
78573;BME280;67862;0.000;0.000;2023-12-07T12:20:13;99064.34;;;21.06;54.98
78573;BME280;67862;0.000;0.000;2023-12-07T12:22:42;99059.19;;;21.04;55.26
78573;BME280;67862;0.000;0.000;2023-12-07T12:25:08;99054.81;;;21.03;54.94
78573;BME280;67862;0.000;0.000;2023-12-07T12:27:33;99056.47;;;21.04;55.22
78573;BME280;67862;0.000;0.000;2023-12-07T12:29:59;99054.00;;;21.03;55.08
78573;BME280;67862;0.000;0.000;2023-12-07T12:32:26;99054.81;;;21.03;55.01
78573;BME280;67862;0.000;0.000;2023-12-07T12:34:51;99054.00;;;21.03;55.15
78573;BME280;67862;0.000;0.000;2023-12-07T12:37:17;99057.84;;;21.02;54.92
78573;BME280;67862;0.000;0.000;2023-12-07T12:39:42;99055.09;;;21.02;54.90
78573;BME280;67862;0.000;0.000;2023-12-07T12:42:08;99062.47;;;21.01;55.21
78573;BME280;67862;0.000;0.000;2023-12-07T12:44:36;99065.19;;;21.01;55.18
78573;BME280;67862;0.000;0.000;2023-12-07T12:47:06;99065.50;;;21.00;54.94
78573;BME280;67862;0.000;0.000;2023-12-07T12:49:36;99071.78;;;21.00;54.91
78573;BME280;67862;0.000;0.000;2023-12-07T12:52:02;99071.78;;;21.00;54.69
78573;BME280;67862;0.000;0.000;2023-12-07T12:54:30;99065.50;;;21.00;55.01
78573;BME280;67862;0.000;0.000;2023-12-07T12:56:56;99078.34;;;20.99;54.81
78573;BME280;67862;0.000;0.000;2023-12-07T12:59:22;99069.34;;;20.99;55.14
78573;BME280;67862;0.000;0.000;2023-12-07T13:01:48;99073.16;;;20.98;54.80
78573;BME280;67862;0.000;0.000;2023-12-07T13:04:13;99079.44;;;20.98;54.89
78573;BME280;67862;0.000;0.000;2023-12-07T13:06:39;99078.63;;;20.98;54.80
78573;BME280;67862;0.000;0.000;2023-12-07T13:09:05;99078.13;;;20.96;55.06
78573;BME280;67862;0.000;0.000;2023-12-07T13:11:30;99075.38;;;20.96;54.68
78573;BME280;67862;0.000;0.000;2023-12-07T13:13:55;99080.84;;;20.96;54.86